sensor_id;sensor_type;location;lat;lon;timestamp;P1;durP1;ratioP1;P2;durP2;ratioP2
12334;SDS011;6233;51.560;9.986;2022-10-01T00:00:47;4.10;;;3.60;;
12334;SDS011;6233;51.560;9.986;2022-10-01T00:03:50;4.00;;;3.27;;
12334;SDS011;6233;51.560;9.986;2022-10-01T00:06:51;3.93;;;3.53;;
12334;SDS011;6233;51.560;9.986;2022-10-01T00:09:53;4.80;;;3.73;;
12334;SDS011;6233;51.560;9.986;2022-10-01T00:12:55;5.83;;;3.70;;
12334;SDS011;6233;51.560;9.986;2022-10-01T00:15:58;4.87;;;3.70;;
12334;SDS011;6233;51.560;9.986;2022-10-01T00:19:00;3.83;;;3.43;;
12334;SDS011;6233;51.560;9.986;2022-10-01T00:22:02;3.63;;;3.30;;
12334;SDS011;6233;51.560;9.986;2022-10-01T00:25:03;7.37;;;3.90;;
12334;SDS011;6233;51.560;9.986;2022-10-01T00:28:06;3.67;;;3.30;;
12334;SDS011;6233;51.560;9.986;2022-10-01T00:31:08;4.63;;;3.93;;
12334;SDS011;6233;51.560;9.986;2022-10-01T00:34:11;4.00;;;3.50;;
12334;SDS011;6233;51.560;9.986;2022-10-01T00:37:15;4.53;;;4.03;;
12334;SDS011;6233;51.560;9.986;2022-10-01T00:40:19;5.23;;;3.77;;
12334;SDS011;6233;51.560;9.986;2022-10-01T00:43:22;4.73;;;3.80;;
12334;SDS011;6233;51.560;9.986;2022-10-01T00:46:37;4.67;;;3.73;;
12334;SDS011;6233;51.560;9.986;2022-10-01T00:49:41;6.53;;;3.83;;
12334;SDS011;6233;51.560;9.986;2022-10-01T00:52:44;4.23;;;3.60;;
12334;SDS011;6233;51.560;9.986;2022-10-01T00:55:54;4.93;;;3.73;;
12334;SDS011;6233;51.560;9.986;2022-10-01T00:58:58;5.03;;;4.00;;
12334;SDS011;6233;51.560;9.986;2022-10-01T01:02:00;6.60;;;4.20;;
12334;SDS011;6233;51.560;9.986;2022-10-01T01:05:02;4.63;;;3.90;;
12334;SDS011;6233;51.560;9.986;2022-10-01T01:08:04;4.43;;;4.03;;
12334;SDS011;6233;51.560;9.986;2022-10-01T01:11:20;4.77;;;4.00;;
12334;SDS011;6233;51.560;9.986;2022-10-01T01:24:29;5.73;;;3.97;;
12334;SDS011;6233;51.560;9.986;2022-10-01T01:28:11;6.30;;;3.93;;
12334;SDS011;6233;51.560;9.986;2022-10-01T01:31:29;4.40;;;3.80;;
12334;SDS011;6233;51.560;9.986;2022-10-01T01:34:36;4.23;;;3.63;;
12334;SDS011;6233;51.560;9.986;2022-10-01T01:37:44;5.50;;;4.27;;
12334;SDS011;6233;51.560;9.986;2022-10-01T01:40:51;4.13;;;3.73;;
12334;SDS011;6233;51.560;9.986;2022-10-01T01:43:57;5.13;;;3.57;;
12334;SDS011;6233;51.560;9.986;2022-10-01T01:47:08;4.37;;;3.73;;
12334;SDS011;6233;51.560;9.986;2022-10-01T01:50:13;4.60;;;3.73;;
12334;SDS011;6233;51.560;9.986;2022-10-01T01:53:17;3.70;;;3.30;;
12334;SDS011;6233;51.560;9.986;2022-10-01T01:56:20;3.77;;;3.43;;
12334;SDS011;6233;51.560;9.986;2022-10-01T01:59:21;5.73;;;3.87;;
12334;SDS011;6233;51.560;9.986;2022-10-01T02:02:27;5.10;;;3.93;;
12334;SDS011;6233;51.560;9.986;2022-10-01T02:05:36;3.87;;;3.50;;
12334;SDS011;6233;51.560;9.986;2022-10-01T02:08:46;4.67;;;3.27;;
12334;SDS011;6233;51.560;9.986;2022-10-01T02:12:01;4.23;;;3.60;;
12334;SDS011;6233;51.560;9.986;2022-10-01T02:15:27;4.60;;;3.50;;
12334;SDS011;6233;51.560;9.986;2022-10-01T02:18:46;3.40;;;3.10;;
12334;SDS011;6233;51.560;9.986;2022-10-01T02:22:11;3.40;;;3.10;;
12334;SDS011;6233;51.560;9.986;2022-10-01T02:25:20;3.77;;;3.03;;
12334;SDS011;6233;51.560;9.986;2022-10-01T02:28:26;3.80;;;3.37;;
12334;SDS011;6233;51.560;9.986;2022-10-01T02:31:33;4.50;;;3.20;;
12334;SDS011;6233;51.560;9.986;2022-10-01T02:34:36;4.07;;;3.20;;
12334;SDS011;6233;51.560;9.986;2022-10-01T02:37:39;4.13;;;3.23;;
12334;SDS011;6233;51.560;9.986;2022-10-01T02:40:43;3.40;;;3.10;;
12334;SDS011;6233;51.560;9.986;2022-10-01T02:43:48;6.90;;;3.80;;
12334;SDS011;6233;51.560;9.986;2022-10-01T02:50:45;5.70;;;3.53;;
12334;SDS011;6233;51.560;9.986;2022-10-01T02:53:54;4.87;;;3.83;;
12334;SDS011;6233;51.560;9.986;2022-10-01T02:57:00;3.57;;;3.27;;
12334;SDS011;6233;51.560;9.986;2022-10-01T03:00:20;4.47;;;3.50;;
12334;SDS011;6233;51.560;9.986;2022-10-01T03:03:22;5.10;;;3.67;;
12334;SDS011;6233;51.560;9.986;2022-10-01T03:06:26;4.13;;;3.07;;
12334;SDS011;6233;51.560;9.986;2022-10-01T03:09:29;4.47;;;3.53;;
12334;SDS011;6233;51.560;9.986;2022-10-01T03:12:32;4.33;;;3.37;;
12334;SDS011;6233;51.560;9.986;2022-10-01T03:15:34;3.93;;;3.53;;
12334;SDS011;6233;51.560;9.986;2022-10-01T03:18:35;3.80;;;3.40;;
12334;SDS011;6233;51.560;9.986;2022-10-01T03:21:37;4.10;;;3.70;;
12334;SDS011;6233;51.560;9.986;2022-10-01T03:24:39;4.70;;;3.60;;
12334;SDS011;6233;51.560;9.986;2022-10-01T03:27:41;5.70;;;3.70;;
12334;SDS011;6233;51.560;9.986;2022-10-01T03:30:43;4.53;;;3.73;;
12334;SDS011;6233;51.560;9.986;2022-10-01T03:33:45;4.87;;;3.87;;
12334;SDS011;6233;51.560;9.986;2022-10-01T03:36:47;4.87;;;3.60;;
12334;SDS011;6233;51.560;9.986;2022-10-01T03:39:52;4.63;;;3.50;;
12334;SDS011;6233;51.560;9.986;2022-10-01T03:42:56;4.40;;;4.00;;
12334;SDS011;6233;51.560;9.986;2022-10-01T03:45:58;4.73;;;3.90;;
12334;SDS011;6233;51.560;9.986;2022-10-01T03:48:59;4.03;;;3.37;;
12334;SDS011;6233;51.560;9.986;2022-10-01T03:52:02;4.67;;;4.00;;
12334;SDS011;6233;51.560;9.986;2022-10-01T03:55:04;3.83;;;3.53;;
12334;SDS011;6233;51.560;9.986;2022-10-01T03:58:06;4.87;;;3.80;;
12334;SDS011;6233;51.560;9.986;2022-10-01T04:01:09;4.57;;;3.93;;
12334;SDS011;6233;51.560;9.986;2022-10-01T04:04:11;4.47;;;3.60;;
12334;SDS011;6233;51.560;9.986;2022-10-01T04:07:12;4.77;;;4.00;;
12334;SDS011;6233;51.560;9.986;2022-10-01T04:10:14;4.90;;;3.80;;
12334;SDS011;6233;51.560;9.986;2022-10-01T04:13:16;5.77;;;4.30;;
12334;SDS011;6233;51.560;9.986;2022-10-01T04:16:18;3.80;;;3.50;;
12334;SDS011;6233;51.560;9.986;2022-10-01T04:19:19;4.00;;;3.57;;
12334;SDS011;6233;51.560;9.986;2022-10-01T04:22:21;3.87;;;3.47;;
12334;SDS011;6233;51.560;9.986;2022-10-01T04:25:23;5.70;;;4.10;;
12334;SDS011;6233;51.560;9.986;2022-10-01T04:28:24;6.03;;;4.17;;
12334;SDS011;6233;51.560;9.986;2022-10-01T04:31:26;3.90;;;3.50;;
12334;SDS011;6233;51.560;9.986;2022-10-01T04:34:32;4.57;;;3.73;;
12334;SDS011;6233;51.560;9.986;2022-10-01T04:37:56;3.60;;;3.30;;
12334;SDS011;6233;51.560;9.986;2022-10-01T04:41:03;4.77;;;4.00;;
12334;SDS011;6233;51.560;9.986;2022-10-01T04:44:05;3.97;;;3.67;;
12334;SDS011;6233;51.560;9.986;2022-10-01T04:47:07;4.50;;;4.10;;
12334;SDS011;6233;51.560;9.986;2022-10-01T04:50:09;6.17;;;3.90;;
12334;SDS011;6233;51.560;9.986;2022-10-01T04:53:10;5.73;;;4.10;;
12334;SDS011;6233;51.560;9.986;2022-10-01T04:56:12;4.03;;;3.63;;
12334;SDS011;6233;51.560;9.986;2022-10-01T04:59:14;6.93;;;4.20;;
12334;SDS011;6233;51.560;9.986;2022-10-01T05:02:16;4.53;;;4.13;;
12334;SDS011;6233;51.560;9.986;2022-10-01T05:05:19;4.87;;;4.10;;
12334;SDS011;6233;51.560;9.986;2022-10-01T05:08:22;4.77;;;4.17;;
12334;SDS011;6233;51.560;9.986;2022-10-01T05:11:24;4.97;;;4.10;;
12334;SDS011;6233;51.560;9.986;2022-10-01T05:14:26;4.73;;;4.13;;
12334;SDS011;6233;51.560;9.986;2022-10-01T05:17:28;4.20;;;3.80;;
12334;SDS011;6233;51.560;9.986;2022-10-01T05:20:34;5.27;;;4.63;;
12334;SDS011;6233;51.560;9.986;2022-10-01T05:23:37;9.57;;;5.40;;
12334;SDS011;6233;51.560;9.986;2022-10-01T05:30:03;5.20;;;4.10;;
12334;SDS011;6233;51.560;9.986;2022-10-01T05:33:05;4.70;;;4.27;;
12334;SDS011;6233;51.560;9.986;2022-10-01T05:36:07;5.67;;;4.43;;
12334;SDS011;6233;51.560;9.986;2022-10-01T05:39:09;5.77;;;4.20;;
12334;SDS011;6233;51.560;9.986;2022-10-01T05:42:11;5.73;;;4.10;;
12334;SDS011;6233;51.560;9.986;2022-10-01T05:45:13;4.57;;;4.17;;
12334;SDS011;6233;51.560;9.986;2022-10-01T05:48:15;3.83;;;3.50;;
12334;SDS011;6233;51.560;9.986;2022-10-01T05:51:16;4.67;;;4.20;;
12334;SDS011;6233;51.560;9.986;2022-10-01T05:54:18;5.10;;;4.20;;
12334;SDS011;6233;51.560;9.986;2022-10-01T05:57:24;8.13;;;5.50;;
12334;SDS011;6233;51.560;9.986;2022-10-01T06:00:26;4.97;;;4.47;;
12334;SDS011;6233;51.560;9.986;2022-10-01T06:03:29;4.87;;;4.37;;
12334;SDS011;6233;51.560;9.986;2022-10-01T06:06:31;7.30;;;4.40;;
12334;SDS011;6233;51.560;9.986;2022-10-01T06:09:32;4.77;;;4.27;;
12334;SDS011;6233;51.560;9.986;2022-10-01T06:12:34;4.30;;;3.90;;
12334;SDS011;6233;51.560;9.986;2022-10-01T06:15:37;4.73;;;4.20;;
12334;SDS011;6233;51.560;9.986;2022-10-01T06:18:39;4.57;;;4.17;;
12334;SDS011;6233;51.560;9.986;2022-10-01T06:21:41;5.70;;;4.33;;
12334;SDS011;6233;51.560;9.986;2022-10-01T06:24:43;4.37;;;3.97;;
12334;SDS011;6233;51.560;9.986;2022-10-01T06:27:50;7.40;;;3.70;;
12334;SDS011;6233;51.560;9.986;2022-10-01T06:31:01;5.53;;;4.13;;
12334;SDS011;6233;51.560;9.986;2022-10-01T06:34:03;4.00;;;3.60;;
12334;SDS011;6233;51.560;9.986;2022-10-01T06:37:04;3.83;;;3.43;;
12334;SDS011;6233;51.560;9.986;2022-10-01T06:40:06;4.77;;;3.40;;
12334;SDS011;6233;51.560;9.986;2022-10-01T06:43:08;4.00;;;3.50;;
12334;SDS011;6233;51.560;9.986;2022-10-01T06:46:10;3.83;;;3.43;;
12334;SDS011;6233;51.560;9.986;2022-10-01T06:49:11;3.70;;;3.40;;
12334;SDS011;6233;51.560;9.986;2022-10-01T06:52:15;3.37;;;3.10;;
12334;SDS011;6233;51.560;9.986;2022-10-01T06:55:35;3.80;;;2.83;;
12334;SDS011;6233;51.560;9.986;2022-10-01T06:58:37;3.33;;;3.03;;
12334;SDS011;6233;51.560;9.986;2022-10-01T07:01:39;3.37;;;3.03;;
12334;SDS011;6233;51.560;9.986;2022-10-01T07:04:41;3.40;;;3.07;;
12334;SDS011;6233;51.560;9.986;2022-10-01T07:07:42;3.47;;;3.07;;
12334;SDS011;6233;51.560;9.986;2022-10-01T07:10:45;3.77;;;3.20;;
12334;SDS011;6233;51.560;9.986;2022-10-01T07:13:46;3.63;;;2.97;;
12334;SDS011;6233;51.560;9.986;2022-10-01T07:16:54;3.37;;;3.07;;
12334;SDS011;6233;51.560;9.986;2022-10-01T07:19:56;4.27;;;3.10;;
12334;SDS011;6233;51.560;9.986;2022-10-01T07:22:58;4.63;;;3.37;;
12334;SDS011;6233;51.560;9.986;2022-10-01T07:26:04;3.60;;;3.03;;
12334;SDS011;6233;51.560;9.986;2022-10-01T07:29:10;4.10;;;2.70;;
12334;SDS011;6233;51.560;9.986;2022-10-01T07:32:11;3.63;;;2.77;;
12334;SDS011;6233;51.560;9.986;2022-10-01T07:35:13;3.17;;;2.90;;
12334;SDS011;6233;51.560;9.986;2022-10-01T07:38:15;4.17;;;2.87;;
12334;SDS011;6233;51.560;9.986;2022-10-01T07:41:16;3.10;;;2.80;;
12334;SDS011;6233;51.560;9.986;2022-10-01T07:44:18;3.70;;;2.67;;
12334;SDS011;6233;51.560;9.986;2022-10-01T07:47:20;3.60;;;2.63;;
12334;SDS011;6233;51.560;9.986;2022-10-01T07:50:22;2.40;;;2.20;;
12334;SDS011;6233;51.560;9.986;2022-10-01T07:53:24;4.27;;;3.13;;
12334;SDS011;6233;51.560;9.986;2022-10-01T07:56:26;2.13;;;2.00;;
12334;SDS011;6233;51.560;9.986;2022-10-01T07:59:27;2.67;;;1.93;;
12334;SDS011;6233;51.560;9.986;2022-10-01T08:06:18;2.93;;;2.40;;
12334;SDS011;6233;51.560;9.986;2022-10-01T08:09:25;2.60;;;2.40;;
12334;SDS011;6233;51.560;9.986;2022-10-01T08:12:27;3.50;;;2.30;;
12334;SDS011;6233;51.560;9.986;2022-10-01T08:15:30;3.07;;;2.77;;
12334;SDS011;6233;51.560;9.986;2022-10-01T08:18:32;2.37;;;2.17;;
12334;SDS011;6233;51.560;9.986;2022-10-01T08:21:34;2.20;;;2.00;;
12334;SDS011;6233;51.560;9.986;2022-10-01T08:27:48;2.83;;;2.10;;
12334;SDS011;6233;51.560;9.986;2022-10-01T08:30:51;2.30;;;2.10;;
12334;SDS011;6233;51.560;9.986;2022-10-01T08:33:56;2.10;;;1.90;;
12334;SDS011;6233;51.560;9.986;2022-10-01T08:36:58;4.27;;;2.20;;
12334;SDS011;6233;51.560;9.986;2022-10-01T08:39:59;2.20;;;2.00;;
12334;SDS011;6233;51.560;9.986;2022-10-01T08:43:02;2.40;;;2.20;;
12334;SDS011;6233;51.560;9.986;2022-10-01T08:46:16;2.63;;;2.40;;
12334;SDS011;6233;51.560;9.986;2022-10-01T08:49:25;3.30;;;2.10;;
12334;SDS011;6233;51.560;9.986;2022-10-01T08:52:35;2.17;;;1.80;;
12334;SDS011;6233;51.560;9.986;2022-10-01T08:55:48;2.23;;;2.07;;
12334;SDS011;6233;51.560;9.986;2022-10-01T08:58:53;2.00;;;1.90;;
12334;SDS011;6233;51.560;9.986;2022-10-01T09:01:58;2.20;;;2.10;;
12334;SDS011;6233;51.560;9.986;2022-10-01T09:05:01;1.93;;;1.83;;
12334;SDS011;6233;51.560;9.986;2022-10-01T09:11:33;2.70;;;1.93;;
12334;SDS011;6233;51.560;9.986;2022-10-01T09:15:05;2.53;;;1.63;;
12334;SDS011;6233;51.560;9.986;2022-10-01T09:22:28;1.73;;;1.63;;
12334;SDS011;6233;51.560;9.986;2022-10-01T09:25:18;1.70;;;1.60;;
12334;SDS011;6233;51.560;9.986;2022-10-01T09:28:24;1.60;;;1.50;;
12334;SDS011;6233;51.560;9.986;2022-10-01T09:31:36;1.70;;;1.60;;
12334;SDS011;6233;51.560;9.986;2022-10-01T09:34:43;1.83;;;1.73;;
12334;SDS011;6233;51.560;9.986;2022-10-01T09:38:31;1.70;;;1.60;;
12334;SDS011;6233;51.560;9.986;2022-10-01T09:41:18;2.10;;;1.97;;
12334;SDS011;6233;51.560;9.986;2022-10-01T09:44:29;2.00;;;1.60;;
12334;SDS011;6233;51.560;9.986;2022-10-01T09:47:32;2.43;;;1.73;;
12334;SDS011;6233;51.560;9.986;2022-10-01T09:50:39;1.77;;;1.67;;
12334;SDS011;6233;51.560;9.986;2022-10-01T09:53:50;1.93;;;1.73;;
12334;SDS011;6233;51.560;9.986;2022-10-01T10:00:15;1.80;;;1.70;;
12334;SDS011;6233;51.560;9.986;2022-10-01T10:03:23;2.37;;;1.67;;
12334;SDS011;6233;51.560;9.986;2022-10-01T10:06:28;1.63;;;1.53;;
12334;SDS011;6233;51.560;9.986;2022-10-01T10:09:33;1.70;;;1.60;;
12334;SDS011;6233;51.560;9.986;2022-10-01T10:12:35;1.97;;;1.80;;
12334;SDS011;6233;51.560;9.986;2022-10-01T10:15:38;1.57;;;1.47;;
12334;SDS011;6233;51.560;9.986;2022-10-01T10:18:55;2.77;;;1.67;;
12334;SDS011;6233;51.560;9.986;2022-10-01T10:22:18;2.00;;;1.90;;
12334;SDS011;6233;51.560;9.986;2022-10-01T10:25:24;1.63;;;1.53;;
12334;SDS011;6233;51.560;9.986;2022-10-01T10:28:26;1.60;;;1.50;;
12334;SDS011;6233;51.560;9.986;2022-10-01T10:31:45;1.90;;;1.80;;
12334;SDS011;6233;51.560;9.986;2022-10-01T10:34:48;1.80;;;1.70;;
12334;SDS011;6233;51.560;9.986;2022-10-01T10:37:52;1.90;;;1.80;;
12334;SDS011;6233;51.560;9.986;2022-10-01T10:40:55;2.20;;;2.00;;
12334;SDS011;6233;51.560;9.986;2022-10-01T10:43:59;1.63;;;1.53;;
12334;SDS011;6233;51.560;9.986;2022-10-01T10:47:07;2.07;;;1.90;;
12334;SDS011;6233;51.560;9.986;2022-10-01T10:50:22;1.70;;;1.60;;
12334;SDS011;6233;51.560;9.986;2022-10-01T10:53:38;2.30;;;2.10;;
12334;SDS011;6233;51.560;9.986;2022-10-01T10:57:01;2.47;;;2.27;;
12334;SDS011;6233;51.560;9.986;2022-10-01T11:00:11;2.60;;;2.40;;
12334;SDS011;6233;51.560;9.986;2022-10-01T11:03:14;2.60;;;2.40;;
12334;SDS011;6233;51.560;9.986;2022-10-01T11:06:19;2.30;;;2.17;;
12334;SDS011;6233;51.560;9.986;2022-10-01T11:09:21;2.00;;;1.90;;
12334;SDS011;6233;51.560;9.986;2022-10-01T11:32:35;3.07;;;1.97;;
12334;SDS011;6233;51.560;9.986;2022-10-01T11:36:02;1.87;;;1.77;;
12334;SDS011;6233;51.560;9.986;2022-10-01T11:39:10;2.87;;;1.90;;
12334;SDS011;6233;51.560;9.986;2022-10-01T11:42:19;1.60;;;1.50;;
12334;SDS011;6233;51.560;9.986;2022-10-01T11:45:29;2.77;;;1.80;;
12334;SDS011;6233;51.560;9.986;2022-10-01T11:48:38;2.50;;;2.30;;
12334;SDS011;6233;51.560;9.986;2022-10-01T11:51:49;2.23;;;2.00;;
12334;SDS011;6233;51.560;9.986;2022-10-01T11:59:10;1.70;;;1.60;;
12334;SDS011;6233;51.560;9.986;2022-10-01T12:02:30;2.37;;;1.80;;
12334;SDS011;6233;51.560;9.986;2022-10-01T12:05:56;2.07;;;1.87;;
12334;SDS011;6233;51.560;9.986;2022-10-01T12:09:04;1.60;;;1.50;;
12334;SDS011;6233;51.560;9.986;2022-10-01T12:12:16;2.50;;;2.13;;
12334;SDS011;6233;51.560;9.986;2022-10-01T12:15:31;1.50;;;1.40;;
12334;SDS011;6233;51.560;9.986;2022-10-01T12:25:11;2.40;;;1.60;;
12334;SDS011;6233;51.560;9.986;2022-10-01T12:28:15;1.90;;;1.50;;
12334;SDS011;6233;51.560;9.986;2022-10-01T12:34:39;3.33;;;1.50;;
12334;SDS011;6233;51.560;9.986;2022-10-01T12:44:59;1.67;;;1.57;;
12334;SDS011;6233;51.560;9.986;2022-10-01T13:05:42;1.27;;;1.17;;
12334;SDS011;6233;51.560;9.986;2022-10-01T13:08:49;3.97;;;2.60;;
12334;SDS011;6233;51.560;9.986;2022-10-01T13:15:20;2.23;;;2.07;;
12334;SDS011;6233;51.560;9.986;2022-10-01T13:18:30;1.27;;;1.20;;
12334;SDS011;6233;51.560;9.986;2022-10-01T13:35:34;1.53;;;1.43;;
12334;SDS011;6233;51.560;9.986;2022-10-01T13:38:40;1.80;;;1.50;;
12334;SDS011;6233;51.560;9.986;2022-10-01T13:41:44;1.93;;;1.80;;
12334;SDS011;6233;51.560;9.986;2022-10-01T13:44:50;1.47;;;1.37;;
12334;SDS011;6233;51.560;9.986;2022-10-01T13:48:26;2.17;;;1.40;;
12334;SDS011;6233;51.560;9.986;2022-10-01T13:51:35;1.30;;;1.20;;
12334;SDS011;6233;51.560;9.986;2022-10-01T13:54:38;1.50;;;1.40;;
12334;SDS011;6233;51.560;9.986;2022-10-01T13:57:47;1.80;;;1.20;;
12334;SDS011;6233;51.560;9.986;2022-10-01T14:00:49;1.00;;;1.00;;
12334;SDS011;6233;51.560;9.986;2022-10-01T14:03:59;1.40;;;0.97;;
12334;SDS011;6233;51.560;9.986;2022-10-01T14:07:10;1.27;;;1.10;;
12334;SDS011;6233;51.560;9.986;2022-10-01T14:10:35;2.43;;;2.00;;
12334;SDS011;6233;51.560;9.986;2022-10-01T14:14:18;1.03;;;1.00;;
12334;SDS011;6233;51.560;9.986;2022-10-01T14:17:39;1.47;;;1.37;;
12334;SDS011;6233;51.560;9.986;2022-10-01T14:27:47;1.37;;;1.27;;
12334;SDS011;6233;51.560;9.986;2022-10-01T14:37:40;1.60;;;1.27;;
12334;SDS011;6233;51.560;9.986;2022-10-01T14:40:42;1.70;;;1.60;;
12334;SDS011;6233;51.560;9.986;2022-10-01T14:43:46;3.13;;;1.80;;
12334;SDS011;6233;51.560;9.986;2022-10-01T14:46:49;2.10;;;1.30;;
12334;SDS011;6233;51.560;9.986;2022-10-01T14:49:52;1.77;;;1.63;;
12334;SDS011;6233;51.560;9.986;2022-10-01T14:52:55;2.17;;;1.83;;
12334;SDS011;6233;51.560;9.986;2022-10-01T14:56:01;2.13;;;1.93;;
12334;SDS011;6233;51.560;9.986;2022-10-01T14:59:22;3.40;;;2.13;;
12334;SDS011;6233;51.560;9.986;2022-10-01T15:02:31;3.53;;;2.13;;
12334;SDS011;6233;51.560;9.986;2022-10-01T15:05:34;3.10;;;2.30;;
12334;SDS011;6233;51.560;9.986;2022-10-01T15:08:38;2.90;;;2.60;;
12334;SDS011;6233;51.560;9.986;2022-10-01T15:11:49;2.77;;;2.47;;
12334;SDS011;6233;51.560;9.986;2022-10-01T15:14:52;3.97;;;2.20;;
12334;SDS011;6233;51.560;9.986;2022-10-01T15:18:10;2.03;;;1.80;;
12334;SDS011;6233;51.560;9.986;2022-10-01T15:21:19;2.93;;;2.20;;
12334;SDS011;6233;51.560;9.986;2022-10-01T15:24:40;2.57;;;1.70;;
12334;SDS011;6233;51.560;9.986;2022-10-01T15:27:47;4.03;;;1.90;;
12334;SDS011;6233;51.560;9.986;2022-10-01T15:30:49;2.30;;;1.70;;
12334;SDS011;6233;51.560;9.986;2022-10-01T15:33:51;3.00;;;2.17;;
12334;SDS011;6233;51.560;9.986;2022-10-01T15:36:56;3.40;;;2.70;;
12334;SDS011;6233;51.560;9.986;2022-10-01T15:40:03;1.63;;;1.53;;
12334;SDS011;6233;51.560;9.986;2022-10-01T15:43:11;3.73;;;1.93;;
12334;SDS011;6233;51.560;9.986;2022-10-01T15:49:29;1.93;;;1.50;;
12334;SDS011;6233;51.560;9.986;2022-10-01T15:55:55;2.83;;;1.67;;
12334;SDS011;6233;51.560;9.986;2022-10-01T15:59:08;2.77;;;2.03;;
12334;SDS011;6233;51.560;9.986;2022-10-01T16:02:18;10.00;;;2.20;;
12334;SDS011;6233;51.560;9.986;2022-10-01T16:05:25;3.27;;;2.13;;
12334;SDS011;6233;51.560;9.986;2022-10-01T16:12:04;4.17;;;2.20;;
12334;SDS011;6233;51.560;9.986;2022-10-01T16:15:27;6.40;;;2.17;;
12334;SDS011;6233;51.560;9.986;2022-10-01T16:18:30;4.63;;;1.80;;
12334;SDS011;6233;51.560;9.986;2022-10-01T16:21:38;3.50;;;1.97;;
12334;SDS011;6233;51.560;9.986;2022-10-01T16:24:41;2.67;;;1.60;;
12334;SDS011;6233;51.560;9.986;2022-10-01T16:27:48;4.10;;;1.53;;
12334;SDS011;6233;51.560;9.986;2022-10-01T16:30:55;2.20;;;1.37;;
12334;SDS011;6233;51.560;9.986;2022-10-01T16:33:57;3.10;;;1.40;;
12334;SDS011;6233;51.560;9.986;2022-10-01T16:36:58;3.13;;;1.70;;
12334;SDS011;6233;51.560;9.986;2022-10-01T16:40:00;2.87;;;1.60;;
12334;SDS011;6233;51.560;9.986;2022-10-01T16:43:02;3.33;;;1.90;;
12334;SDS011;6233;51.560;9.986;2022-10-01T16:46:03;3.00;;;2.27;;
12334;SDS011;6233;51.560;9.986;2022-10-01T16:49:08;4.10;;;2.57;;
12334;SDS011;6233;51.560;9.986;2022-10-01T16:52:13;2.50;;;1.60;;
12334;SDS011;6233;51.560;9.986;2022-10-01T16:58:23;5.57;;;2.27;;
12334;SDS011;6233;51.560;9.986;2022-10-01T17:01:24;4.43;;;2.40;;
12334;SDS011;6233;51.560;9.986;2022-10-01T17:04:27;3.03;;;2.37;;
12334;SDS011;6233;51.560;9.986;2022-10-01T17:07:34;4.17;;;2.20;;
12334;SDS011;6233;51.560;9.986;2022-10-01T17:10:40;2.53;;;2.30;;
12334;SDS011;6233;51.560;9.986;2022-10-01T17:13:47;4.63;;;2.90;;
12334;SDS011;6233;51.560;9.986;2022-10-01T17:16:48;14.47;;;9.50;;
12334;SDS011;6233;51.560;9.986;2022-10-01T17:19:52;8.03;;;5.40;;
12334;SDS011;6233;51.560;9.986;2022-10-01T17:22:53;9.83;;;6.93;;
12334;SDS011;6233;51.560;9.986;2022-10-01T17:25:56;16.07;;;9.97;;
12334;SDS011;6233;51.560;9.986;2022-10-01T17:28:57;14.57;;;9.60;;
12334;SDS011;6233;51.560;9.986;2022-10-01T17:31:59;10.67;;;7.17;;
12334;SDS011;6233;51.560;9.986;2022-10-01T17:35:01;8.50;;;5.00;;
12334;SDS011;6233;51.560;9.986;2022-10-01T17:38:03;5.67;;;3.20;;
12334;SDS011;6233;51.560;9.986;2022-10-01T17:41:05;4.63;;;3.40;;
12334;SDS011;6233;51.560;9.986;2022-10-01T17:44:07;3.67;;;3.10;;
12334;SDS011;6233;51.560;9.986;2022-10-01T17:47:09;6.90;;;2.90;;
12334;SDS011;6233;51.560;9.986;2022-10-01T17:50:11;6.07;;;2.80;;
12334;SDS011;6233;51.560;9.986;2022-10-01T17:53:13;4.97;;;3.57;;
12334;SDS011;6233;51.560;9.986;2022-10-01T17:56:15;4.43;;;2.77;;
12334;SDS011;6233;51.560;9.986;2022-10-01T17:59:18;4.90;;;3.00;;
12334;SDS011;6233;51.560;9.986;2022-10-01T18:02:20;3.13;;;2.53;;
12334;SDS011;6233;51.560;9.986;2022-10-01T18:05:42;3.83;;;2.60;;
12334;SDS011;6233;51.560;9.986;2022-10-01T18:08:47;3.93;;;2.83;;
12334;SDS011;6233;51.560;9.986;2022-10-01T18:11:57;3.73;;;2.50;;
12334;SDS011;6233;51.560;9.986;2022-10-01T18:14:59;6.30;;;3.37;;
12334;SDS011;6233;51.560;9.986;2022-10-01T18:18:01;6.30;;;4.13;;
12334;SDS011;6233;51.560;9.986;2022-10-01T18:21:22;6.50;;;3.70;;
12334;SDS011;6233;51.560;9.986;2022-10-01T18:24:24;5.13;;;3.50;;
12334;SDS011;6233;51.560;9.986;2022-10-01T18:27:26;6.10;;;3.53;;
12334;SDS011;6233;51.560;9.986;2022-10-01T18:30:30;5.23;;;3.00;;
12334;SDS011;6233;51.560;9.986;2022-10-01T18:33:31;6.00;;;2.93;;
12334;SDS011;6233;51.560;9.986;2022-10-01T18:40:03;4.30;;;2.23;;
12334;SDS011;6233;51.560;9.986;2022-10-01T18:43:16;3.97;;;2.50;;
12334;SDS011;6233;51.560;9.986;2022-10-01T18:46:37;5.90;;;2.90;;
12334;SDS011;6233;51.560;9.986;2022-10-01T18:53:32;6.53;;;3.20;;
12334;SDS011;6233;51.560;9.986;2022-10-01T18:57:15;5.03;;;3.27;;
12334;SDS011;6233;51.560;9.986;2022-10-01T19:00:47;3.67;;;3.03;;
12334;SDS011;6233;51.560;9.986;2022-10-01T19:14:40;11.23;;;8.13;;
12334;SDS011;6233;51.560;9.986;2022-10-01T19:31:51;7.63;;;6.10;;
12334;SDS011;6233;51.560;9.986;2022-10-01T19:35:15;8.10;;;5.27;;
12334;SDS011;6233;51.560;9.986;2022-10-01T19:38:39;7.63;;;5.00;;
12334;SDS011;6233;51.560;9.986;2022-10-01T19:42:02;6.00;;;5.40;;
12334;SDS011;6233;51.560;9.986;2022-10-01T19:45:20;8.03;;;4.97;;
12334;SDS011;6233;51.560;9.986;2022-10-01T19:48:29;10.17;;;5.23;;
12334;SDS011;6233;51.560;9.986;2022-10-01T19:51:54;6.63;;;4.90;;
12334;SDS011;6233;51.560;9.986;2022-10-01T19:55:01;8.50;;;5.30;;
12334;SDS011;6233;51.560;9.986;2022-10-01T19:58:07;7.27;;;6.00;;
12334;SDS011;6233;51.560;9.986;2022-10-01T20:01:20;9.50;;;5.30;;
12334;SDS011;6233;51.560;9.986;2022-10-01T20:11:11;9.37;;;5.40;;
12334;SDS011;6233;51.560;9.986;2022-10-01T20:14:24;7.10;;;5.30;;
12334;SDS011;6233;51.560;9.986;2022-10-01T20:18:09;9.63;;;5.23;;
12334;SDS011;6233;51.560;9.986;2022-10-01T20:34:34;7.93;;;4.77;;
12334;SDS011;6233;51.560;9.986;2022-10-01T20:41:21;7.23;;;5.30;;
12334;SDS011;6233;51.560;9.986;2022-10-01T20:44:26;9.10;;;5.47;;
12334;SDS011;6233;51.560;9.986;2022-10-01T20:47:35;9.63;;;4.90;;
12334;SDS011;6233;51.560;9.986;2022-10-01T20:50:45;11.13;;;6.40;;
12334;SDS011;6233;51.560;9.986;2022-10-01T20:54:05;7.50;;;5.30;;
12334;SDS011;6233;51.560;9.986;2022-10-01T20:57:32;10.33;;;5.70;;
12334;SDS011;6233;51.560;9.986;2022-10-01T21:00:42;8.47;;;5.80;;
12334;SDS011;6233;51.560;9.986;2022-10-01T21:03:56;9.53;;;6.63;;
12334;SDS011;6233;51.560;9.986;2022-10-01T21:07:15;10.67;;;6.37;;
12334;SDS011;6233;51.560;9.986;2022-10-01T21:16:57;11.43;;;6.13;;
12334;SDS011;6233;51.560;9.986;2022-10-01T21:23:51;9.73;;;6.03;;
12334;SDS011;6233;51.560;9.986;2022-10-01T21:30:27;11.30;;;5.90;;
12334;SDS011;6233;51.560;9.986;2022-10-01T21:36:54;8.37;;;5.53;;
12334;SDS011;6233;51.560;9.986;2022-10-01T21:53:42;7.03;;;4.00;;
12334;SDS011;6233;51.560;9.986;2022-10-01T22:00:28;10.23;;;4.13;;
12334;SDS011;6233;51.560;9.986;2022-10-01T22:03:49;8.00;;;4.73;;
12334;SDS011;6233;51.560;9.986;2022-10-01T22:07:02;7.80;;;5.17;;
12334;SDS011;6233;51.560;9.986;2022-10-01T22:10:20;8.97;;;4.57;;
12334;SDS011;6233;51.560;9.986;2022-10-01T22:13:32;7.73;;;4.90;;
12334;SDS011;6233;51.560;9.986;2022-10-01T22:16:38;7.47;;;5.00;;
12334;SDS011;6233;51.560;9.986;2022-10-01T22:19:45;8.93;;;4.57;;
12334;SDS011;6233;51.560;9.986;2022-10-01T22:22:53;10.77;;;4.73;;
12334;SDS011;6233;51.560;9.986;2022-10-01T22:26:00;10.53;;;4.93;;
12334;SDS011;6233;51.560;9.986;2022-10-01T22:29:10;9.70;;;4.40;;
12334;SDS011;6233;51.560;9.986;2022-10-01T22:32:21;8.27;;;4.20;;
12334;SDS011;6233;51.560;9.986;2022-10-01T22:35:28;7.27;;;4.27;;
12334;SDS011;6233;51.560;9.986;2022-10-01T22:38:39;8.20;;;4.20;;
12334;SDS011;6233;51.560;9.986;2022-10-01T22:41:56;8.43;;;3.60;;
12334;SDS011;6233;51.560;9.986;2022-10-01T22:45:27;9.00;;;3.63;;
12334;SDS011;6233;51.560;9.986;2022-10-01T22:52:16;7.70;;;3.77;;
12334;SDS011;6233;51.560;9.986;2022-10-01T22:55:38;5.60;;;3.90;;